Terminal Aerodrome Forecast
Issued by NWS

Home | Current Version | Previous Version | Text Only | Print | Product List | Glossary On
Versions: 1 2 3 4 5 6 7 8 9 10 11 12 13
000
FTUS44 KTSA 311700
TAFMLC
TAF
KMLC 311725Z 3118/0118 14011KT P6SM OVC150
     FM010000 14011KT P6SM -RA OVC070
     FM010300 14005KT P6SM -RA OVC025
     FM010600 17010KT 5SM -RA BR OVC015
     FM010900 VRB06KT 2SM RA BR OVC007
     FM011500 28009KT 4SM BR OVC007=

USA.gov is the U.S. government's official web portal to all federal, state and local government web resources and services.